Погода Окахандяна неделю

Окаванго, Намибия

19 - 25 июня
  • 19июня
    Сегодня
    +8°
    +27°
    Ясно и безоблачно
    ВремяПогодаТемператураВлажностьДавлениеВетер, м/сВероятность осадков
    02:00Ясно и безоблачно+7°C27 %650 мм2.0 м/с4 %
    05:00Ясно и безоблачно+6°C29 %649 мм3.1 м/с4 %
    08:00Ясно и безоблачно+7°C32 %651 мм3.4 м/с4 %
    11:00Ясно и безоблачно+22°C17 %656 мм3.3 м/с4 %
    14:00Ясно и безоблачно+26°C11 %655 мм3.1 м/с4 %
    17:00Ясно и безоблачно+27°C11 %654 мм2.6 м/с4 %
    20:00Ясно и безоблачно+16°C18 %652 мм2.5 м/с4 %
    23:00Ясно и безоблачно+11°C23 %651 мм2.7 м/с4 %
  • 20июня
    Четверг
    +9°
    +27°
    Ясно и безоблачно
    ВремяПогодаТемператураВлажностьДавлениеВетер, м/сВероятность осадков
    02:00Ясно и безоблачно+9°C29 %651 мм2.6 м/с4 %
    05:00Ясно и безоблачно+8°C32 %650 мм3.9 м/с4 %
    08:00Ясно и безоблачно+9°C33 %652 мм4.9 м/с4 %
    11:00Ясно и безоблачно+22°C18 %657 мм5.6 м/с4 %
    14:00Ясно и безоблачно+26°C14 %655 мм6.5 м/с4 %
    17:00Ясно и безоблачно+27°C12 %655 мм4.8 м/с4 %
    20:00Ясно и безоблачно+18°C19 %653 мм4.1 м/с4 %
    23:00Ясно и безоблачно+14°C25 %653 мм4.2 м/с4 %
  • 21июня
    Пятница
    +10°
    +28°
    Ясно и безоблачно
    ВремяПогодаТемператураВлажностьДавлениеВетер, м/сВероятность осадков
    02:00Ясно и безоблачно+12°C28 %653 мм4.7 м/с4 %
    05:00Ясно и безоблачно+10°C33 %653 мм4.8 м/с4 %
    08:00Ясно и безоблачно+10°C36 %654 мм4.9 м/с4 %
    11:00Ясно и безоблачно+23°C20 %658 мм6.0 м/с4 %
    14:00Ясно и безоблачно+27°C14 %657 мм5.2 м/с4 %
    17:00Ясно и безоблачно+27°C12 %657 мм3.1 м/с4 %
    20:00Ясно и безоблачно+17°C20 %654 мм3.0 м/с4 %
    23:00Ясно и безоблачно+12°C26 %654 мм3.2 м/с4 %
  • 22июня
    Суббота
    +10°
    +28°
    Ясно и безоблачно
    ВремяПогодаТемператураВлажностьДавлениеВетер, м/сВероятность осадков
    02:00Ясно и безоблачно+12°C29 %654 мм4.4 м/с4 %
    05:00Ясно и безоблачно+12°C33 %654 мм4.9 м/с4 %
    08:00Ясно и безоблачно+11°C37 %655 мм4.5 м/с4 %
    11:00Ясно и безоблачно+24°C19 %659 мм5.7 м/с4 %
    14:00Ясно и безоблачно+27°C14 %658 мм5.5 м/с4 %
    17:00Ясно и безоблачно+28°C13 %657 мм4.1 м/с4 %
    20:00Ясно и безоблачно+19°C23 %655 мм3.0 м/с4 %
    23:00Ясно и безоблачно+15°C30 %656 мм4.2 м/с4 %
  • 23июня
    Воскресенье
    +10°
    +27°
    Ясно и безоблачно
    ВремяПогодаТемператураВлажностьДавлениеВетер, м/сВероятность осадков
    02:00Ясно и безоблачно+14°C41 %655 мм4.8 м/с4 %
    05:00Ясно и безоблачно+12°C46 %655 мм4.6 м/с4 %
    08:00Ясно и безоблачно+11°C51 %656 мм4.8 м/с4 %
    11:00Ясно и безоблачно+23°C29 %659 мм6.8 м/с4 %
    14:00Ясно и безоблачно+26°C20 %658 мм5.1 м/с4 %
    17:00Ясно и безоблачно+27°C19 %658 мм3.5 м/с4 %
    20:00Ясно и безоблачно+19°C28 %656 мм3.0 м/с4 %
    23:00Ясно и безоблачно+15°C32 %656 мм4.2 м/с4 %
Мы используем cookies
Соглашаюсь